Time;durP1;ratioP1;P1;durP2;ratioP2;P2;SDS_P1;SDS_P2;PMS_P1;PMS_P2;Temp;Humidity;BMP_temperature;BMP_pressure;BME280_temperature;BME280_humidity;BME280_pressure;Samples;Min_cycle;Max_cycle;Signal;HPM_P1;HPM_P2
2022/12/10 00:01:17;;;;;;;35.53;20.60;;;-1.40;99.90;;;-2.54;100.00;100678.09;4202607;28;20021;-74
2022/12/10 00:03:18;;;;;;;35.10;19.23;;;-1.40;99.90;;;-2.49;100.00;100683.91;4203747;28;20028;-75
2022/12/10 00:05:19;;;;;;;30.80;18.58;;;-1.40;99.90;;;-2.48;100.00;100684.75;4202165;28;20036;-75
2022/12/10 00:07:19;;;;;;;32.85;18.63;;;-1.30;99.90;;;-2.43;100.00;100687.94;4202164;28;20418;-75
2022/12/10 00:09:21;;;;;;;30.52;17.52;;;-1.30;99.90;;;-2.44;100.00;100687.09;4203661;28;20391;-75
2022/12/10 00:11:23;;;;;;;30.13;17.70;;;-1.30;99.90;;;-2.46;100.00;100691.50;4203795;28;20067;-74
2022/12/10 00:13:24;;;;;;;30.00;19.48;;;-1.30;99.90;;;-2.54;100.00;100675.53;4202216;28;20029;-74
2022/12/10 00:15:25;;;;;;;38.47;22.55;;;-1.30;99.90;;;-2.64;100.00;100681.22;4202707;28;20113;-75
2022/12/10 00:17:25;;;;;;;36.97;19.88;;;-1.40;99.90;;;-2.72;100.00;100678.19;4202564;28;20032;-74
2022/12/10 00:19:26;;;;;;;32.90;20.20;;;-1.40;99.90;;;-2.76;100.00;100671.50;4202079;28;20058;-74
2022/12/10 00:21:31;;;;;;;32.85;20.67;;;-1.50;99.90;;;-2.82;100.00;100664.88;4202351;28;20112;-74
2022/12/10 00:23:33;;;;;;;30.98;19.10;;;-1.60;99.90;;;-2.82;100.00;100664.88;4202064;28;20392;-74
2022/12/10 00:25:34;;;;;;;35.40;19.60;;;-1.60;99.90;;;-2.83;100.00;100660.63;4202139;28;20028;-74
2022/12/10 00:27:35;;;;;;;31.83;18.33;;;-1.60;99.90;;;-2.81;100.00;100674.31;4203395;28;20158;-74
2022/12/10 00:29:36;;;;;;;32.80;17.80;;;-1.60;99.90;;;-2.86;100.00;100666.78;4203222;28;20059;-74
2022/12/10 00:31:38;;;;;;;30.60;18.08;;;-1.60;99.90;;;-2.82;100.00;100667.47;4201910;28;20024;-75
2022/12/10 00:33:39;;;;;;;27.95;16.77;;;-1.60;99.90;;;-2.84;100.00;100672.69;4203287;28;20024;-75
2022/12/10 00:35:40;;;;;;;32.13;17.83;;;-1.60;99.90;;;-2.82;100.00;100662.31;4202090;28;20029;-74
2022/12/10 00:37:41;;;;;;;27.60;15.75;;;-1.60;99.90;;;-2.75;100.00;100662.84;4185261;28;20052;-74
2022/12/10 00:39:42;;;;;;;30.33;16.88;;;-1.60;99.90;;;-2.78;100.00;100668.16;4202974;28;20060;-74
2022/12/10 00:41:43;;;;;;;30.23;17.58;;;-1.60;99.90;;;-2.70;100.00;100673.78;4203287;28;20028;-74
2022/12/10 00:43:45;;;;;;;30.27;16.20;;;-1.60;99.90;;;-2.70;100.00;100669.47;4201731;28;20060;-74
2022/12/10 00:45:46;;;;;;;27.42;15.32;;;-1.60;99.90;;;-2.73;100.00;100667.03;4202931;28;20060;-74
2022/12/10 00:47:47;;;;;;;30.48;16.33;;;-1.60;99.90;;;-2.69;100.00;100678.03;4184961;28;20029;-74
2022/12/10 00:49:48;;;;;;;32.33;18.80;;;-1.60;99.90;;;-2.73;100.00;100661.88;4202796;28;20075;-74
2022/12/10 00:51:49;;;;;;;31.33;18.05;;;-1.50;99.90;;;-2.67;100.00;100673.63;4202935;28;20029;-74
2022/12/10 00:53:53;;;;;;;30.88;16.88;;;-1.50;99.90;;;-2.65;100.00;100669.22;4201551;28;20025;-74
2022/12/10 00:55:54;;;;;;;36.67;18.48;;;-1.50;99.90;;;-2.66;100.00;100671.00;4202611;28;20099;-74
2022/12/10 00:57:55;;;;;;;32.72;17.17;;;-1.50;99.90;;;-2.63;100.00;100673.44;4202948;28;20032;-74
2022/12/10 00:59:56;;;;;;;28.70;15.80;;;-1.50;99.90;;;-2.62;100.00;100675.06;4202841;28;20051;-74
2022/12/10 01:01:57;;;;;;;38.13;18.30;;;-1.50;99.90;;;-2.61;100.00;100676.75;4201524;28;20056;-74
2022/12/10 01:04:02;;;;;;;26.88;16.08;;;-1.50;99.90;;;-2.60;100.00;100680.19;4201166;28;20533;-74
2022/12/10 01:06:12;;;;;;;21.88;14.02;;;-1.40;99.90;;;-2.64;100.00;100682.06;4202682;28;20062;-74
2022/12/10 01:08:13;;;;;;;25.88;15.07;;;-1.50;99.90;;;-2.70;100.00;100678.94;4202742;28;20051;-74
2022/12/10 01:10:14;;;;;;;26.80;15.52;;;-1.50;99.90;;;-2.78;100.00;100671.59;4201322;28;20028;-74
2022/12/10 01:12:15;;;;;;;30.25;15.32;;;-1.50;99.90;;;-2.80;100.00;100687.13;4202648;28;20108;-74
2022/12/10 01:14:21;;;;;;;32.53;17.27;;;-1.50;99.90;;;-2.90;100.00;100677.31;4201102;28;20021;-74
2022/12/10 01:16:23;;;;;;;27.38;16.48;;;-1.60;99.90;;;-2.91;100.00;100683.38;4202518;28;20123;-74
2022/12/10 01:18:24;;;;;;;26.85;15.80;;;-1.60;99.90;;;-2.91;100.00;100689.38;4201351;28;20028;-74
2022/12/10 01:20:24;;;;;;;27.45;15.80;;;-1.70;99.90;;;-2.91;100.00;100691.13;4184448;28;20025;-74
2022/12/10 01:22:25;;;;;;;26.77;15.52;;;-1.70;99.90;;;-2.92;100.00;100690.28;4202437;28;20106;-74
2022/12/10 01:24:27;;;;;;;22.80;14.75;;;-1.70;99.90;;;-2.97;100.00;100692.25;4202346;28;20059;-74
2022/12/10 01:26:32;;;;;;;23.48;14.85;;;-1.70;99.90;;;-2.98;100.00;100692.31;4200453;28;20032;-74
2022/12/10 01:28:36;;;;;;;32.22;16.65;;;-1.80;99.90;;;-2.93;100.00;100698.13;4201019;28;20021;-74
2022/12/10 01:30:37;;;;;;;28.25;16.52;;;-1.80;99.90;;;-2.89;100.00;100702.19;4201148;28;20097;-74
2022/12/10 01:32:37;;;;;;;30.17;16.83;;;-1.70;99.90;;;-2.89;100.00;100699.63;4202206;28;20024;-74
2022/12/10 01:34:38;;;;;;;26.77;15.93;;;-1.70;99.90;;;-2.89;100.00;100712.53;4201924;28;20059;-74
2022/12/10 01:36:43;;;;;;;27.88;16.83;;;-1.70;99.90;;;-2.92;100.00;100716.09;4201012;28;20047;-74
2022/12/10 01:38:44;;;;;;;28.30;17.17;;;-1.70;99.90;;;-2.91;100.00;100722.09;4202195;28;20103;-74
2022/12/10 01:40:45;;;;;;;30.65;17.63;;;-1.80;99.90;;;-2.91;100.00;100714.34;4200996;28;20078;-74
2022/12/10 01:42:46;;;;;;;29.25;16.58;;;-1.70;99.90;;;-2.82;100.00;100726.81;4200801;28;20032;-74
2022/12/10 01:44:47;;;;;;;28.38;15.88;;;-1.70;99.90;;;-2.75;100.00;100720.47;4202201;28;20024;-74
2022/12/10 01:46:54;;;;;;;25.77;15.25;;;-1.70;99.90;;;-2.76;100.00;100729.13;4200704;28;20043;-74
2022/12/10 01:48:57;;;;;;;27.67;16.58;;;-1.70;99.90;;;-2.78;100.00;100727.53;4201889;28;20399;-74
2022/12/10 01:50:58;;;;;;;30.95;16.80;;;-1.60;99.90;;;-2.72;100.00;100729.81;4200704;28;20108;-74
2022/12/10 01:52:59;;;;;;;28.30;15.68;;;-1.60;99.90;;;-2.71;100.00;100729.72;4200885;28;20020;-74
2022/12/10 01:55:00;;;;;;;24.65;15.52;;;-1.60;99.90;;;-2.71;100.00;100732.31;4200817;28;20028;-74
2022/12/10 01:57:11;;;;;;;28.52;15.15;;;-1.60;99.90;;;-2.73;100.00;100722.97;4202051;28;20531;-74
2022/12/10 01:59:15;;;;;;;29.73;15.32;;;-1.60;99.90;;;-2.77;100.00;100730.03;4200692;28;20060;-74
2022/12/10 02:01:52;;;;;;;28.08;13.95;;;-1.60;99.90;;;-2.78;100.00;100740.44;4201007;28;20028;-74
2022/12/10 02:04:28;;;;;;;28.08;14.55;;;-1.60;99.90;;;-2.86;100.00;100744.19;4201643;28;20074;-74
2022/12/10 02:07:04;;;;;;;24.23;14.20;;;-1.60;99.90;;;-2.91;100.00;100745.31;4200876;28;20029;-74
2022/12/10 02:09:21;;;;;;;24.42;13.85;;;-1.70;99.90;;;-2.88;100.00;100751.19;4200814;28;20032;-74
2022/12/10 02:11:49;;;;;;;30.52;17.33;;;-1.70;99.90;;;-2.96;100.00;100742.97;4200691;28;20021;-74
2022/12/10 02:14:00;;;;;;;26.88;16.75;;;-1.70;99.90;;;-2.93;100.00;100747.97;4200659;28;20647;-74
2022/12/10 02:16:14;;;;;;;30.30;17.42;;;-1.70;99.90;;;-2.96;100.00;100742.13;4191216;28;20052;-74
2022/12/10 02:18:26;;;;;;;32.23;17.60;;;-1.70;99.90;;;-2.89;100.00;100749.50;4200848;28;20039;-74
2022/12/10 02:20:45;;;;;;;31.27;17.60;;;-1.70;99.90;;;-2.94;100.00;100740.31;4202020;28;20033;-74
2022/12/10 02:22:58;;;;;;;27.73;17.05;;;-1.70;99.90;;;-2.91;100.00;100755.66;4200825;28;20029;-74
2022/12/10 02:25:01;;;;;;;25.92;14.43;;;-1.70;99.90;;;-2.98;100.00;100749.06;4200531;28;20499;-74
2022/12/10 02:27:27;;;;;;;20.75;14.20;;;-1.70;99.90;;;-3.02;100.00;100763.88;4200709;28;20052;-74
2022/12/10 02:29:30;;;;;;;24.30;14.60;;;-1.80;99.90;;;-3.09;100.00;100767.66;4200697;28;20108;-74
2022/12/10 02:31:32;;;;;;;22.38;13.38;;;-1.80;99.90;;;-3.11;100.00;100763.47;4200403;28;20026;-74
2022/12/10 02:33:40;;;;;;;24.60;14.32;;;-1.80;99.90;;;-3.13;100.00;100765.25;4200394;28;20588;-74
2022/12/10 02:35:43;;;;;;;22.40;14.15;;;-1.90;99.90;;;-3.11;100.00;100769.47;4200680;28;20027;-74
2022/12/10 02:38:06;;;;;;;28.55;15.07;;;-1.90;99.90;;;-3.11;100.00;100766.88;4200420;28;20028;-74
2022/12/10 02:40:19;;;;;;;26.90;15.73;;;-1.90;99.90;;;-3.12;100.00;100770.38;4204094;28;20056;-74
2022/12/10 02:42:24;;;;;;;28.35;16.42;;;-1.90;99.90;;;-3.06;100.00;100771.81;4203995;28;20562;-74
2022/12/10 02:44:27;;;;;;;32.60;17.02;;;-1.90;99.90;;;-3.08;100.00;100771.91;4203649;28;20111;-74
2022/12/10 02:46:29;;;;;;;48.35;21.98;;;-1.90;99.90;;;-3.02;100.00;100773.38;4203730;28;20115;-74
2022/12/10 02:48:33;;;;;;;52.63;23.73;;;-1.90;99.90;;;-3.01;100.00;100772.44;4203659;28;20016;-74
2022/12/10 02:50:34;;;;;;;70.75;29.67;;;-1.80;99.90;;;-2.98;100.00;100775.72;4187043;28;20178;-74
2022/12/10 02:52:35;;;;;;;71.47;30.70;;;-1.80;99.90;;;-2.97;100.00;100776.56;4203458;28;20020;-74
2022/12/10 02:54:41;;;;;;;48.50;21.52;;;-1.80;99.90;;;-2.90;100.00;100775.41;4203554;28;20476;-74
2022/12/10 02:56:58;;;;;;;32.35;17.98;;;-1.80;99.90;;;-2.89;100.00;100779.63;4203535;28;20032;-74
2022/12/10 02:59:17;;;;;;;33.45;17.08;;;-1.70;99.90;;;-2.98;100.00;100773.16;4203468;28;20042;-74
2022/12/10 03:01:26;;;;;;;34.72;16.73;;;-1.80;99.90;;;-3.08;100.00;100774.50;4204651;28;20036;-74
2022/12/10 03:03:45;;;;;;;31.23;16.80;;;-1.80;99.90;;;-3.18;100.00;100767.22;4204469;28;20094;-74
2022/12/10 03:06:18;;;;;;;39.58;19.45;;;-1.90;99.90;;;-3.20;100.00;100769.03;4203761;28;20059;-74
2022/12/10 03:08:38;;;;;;;34.90;17.08;;;-2.00;99.90;;;-3.31;100.00;100759.19;4193012;28;20071;-74
2022/12/10 03:11:21;;;;;;;30.45;18.38;;;-2.00;99.90;;;-3.26;100.00;100767.56;4196979;28;20040;-74
2022/12/10 03:13:34;;;;;;;44.10;22.50;;;-2.00;99.90;;;-3.22;100.00;100776.81;4203487;28;20032;-74
2022/12/10 03:15:40;;;;;;;46.75;24.83;;;-2.00;99.90;;;-3.18;100.00;100780.94;4203049;28;20055;-74
2022/12/10 03:17:43;;;;;;;47.33;23.80;;;-2.00;99.90;;;-3.14;100.00;100773.91;4203348;28;20479;-74
2022/12/10 03:19:50;;;;;;;49.75;26.30;;;-2.00;99.90;;;-3.16;100.00;100773.97;4203169;28;20028;-74
2022/12/10 03:21:52;;;;;;;47.50;26.52;;;-2.00;99.90;;;-3.12;100.00;100765.19;4203060;28;20070;-74
2022/12/10 03:23:53;;;;;;;39.95;21.92;;;-2.00;99.90;;;-3.09;100.00;100770.22;4203321;28;20032;-74
2022/12/10 03:25:54;;;;;;;38.78;21.23;;;-1.90;99.90;;;-3.10;100.00;100768.53;4204269;28;20024;-74
2022/12/10 03:27:59;;;;;;;34.53;19.48;;;-1.90;99.90;;;-3.11;100.00;100771.19;4203014;28;20032;-74
2022/12/10 03:30:00;;;;;;;35.30;20.80;;;-1.90;99.90;;;-3.12;100.00;100772.94;4202888;28;20067;-74
2022/12/10 03:32:02;;;;;;;32.97;18.00;;;-1.90;99.90;;;-3.14;100.00;100763.59;4203025;28;20064;-74
2022/12/10 03:34:04;;;;;;;31.83;18.15;;;-1.90;99.90;;;-3.12;100.00;100777.25;4202340;28;20020;-74
2022/12/10 03:36:07;;;;;;;27.30;17.38;;;-1.90;99.90;;;-3.12;100.00;100772.09;4190578;28;20509;-74
2022/12/10 03:38:09;;;;;;;31.13;16.30;;;-1.90;99.90;;;-3.15;100.00;100773.06;4202530;28;20123;-74
2022/12/10 03:40:12;;;;;;;32.45;17.70;;;-1.90;99.90;;;-3.18;100.00;100769.78;4219704;28;20068;-74
2022/12/10 03:42:13;;;;;;;28.58;17.42;;;-1.90;99.90;;;-3.24;100.00;100770.91;4196798;28;20056;-74
2022/12/10 03:44:25;;;;;;;24.65;16.65;;;-2.00;99.90;;;-3.28;100.00;100771.09;4203968;28;20046;-74
2022/12/10 03:46:31;;;;;;;28.05;15.13;;;-2.00;99.90;;;-3.36;100.00;100769.72;4202968;28;20028;-74
2022/12/10 03:48:32;;;;;;;27.67;16.65;;;-2.00;99.90;;;-3.40;100.00;100768.16;4202645;28;20415;-74
2022/12/10 03:50:33;;;;;;;25.73;15.43;;;-2.10;99.90;;;-3.44;100.00;100771.81;4202023;28;20024;-74
2022/12/10 03:52:34;;;;;;;28.63;16.92;;;-2.10;99.90;;;-3.47;100.00;100771.94;4202432;28;20024;-74
2022/12/10 03:54:36;;;;;;;32.95;16.45;;;-2.20;99.90;;;-3.54;100.00;100770.50;4202781;28;20020;-74
2022/12/10 03:56:37;;;;;;;29.30;16.70;;;-2.20;99.90;;;-3.62;100.00;100757.13;4202709;28;20550;-74
2022/12/10 03:58:38;;;;;;;28.65;16.10;;;-2.30;99.90;;;-3.65;100.00;100762.41;4203868;28;20032;-75
2022/12/10 04:00:39;;;;;;;22.52;15.30;;;-2.30;99.90;;;-3.70;100.00;100753.22;4202488;28;20039;-74
2022/12/10 04:02:40;;;;;;;30.50;16.17;;;-2.40;99.90;;;-3.65;100.00;100762.41;4204039;28;20082;-74
2022/12/10 04:04:41;;;;;;;24.88;15.75;;;-2.40;99.90;;;-3.67;100.00;100753.88;4203690;28;20032;-74
2022/12/10 04:06:42;;;;;;;24.00;14.55;;;-2.40;99.90;;;-3.67;100.00;100756.47;4202463;28;20425;-74
2022/12/10 04:08:43;;;;;;;25.13;15.52;;;-2.40;99.90;;;-3.66;100.00;100760.72;4202404;28;20103;-75
2022/12/10 04:10:44;;;;;;;24.63;15.15;;;-2.40;99.90;;;-3.65;100.00;100759.84;4202547;28;20025;-74
2022/12/10 04:16:26;;;;;;;24.52;14.57;;;-2.40;99.90;;;-3.64;100.00;100750.34;4203787;28;20180;-74
2022/12/10 04:17:27;;;;;;;23.88;15.35;;;-2.40;99.90;;;-3.62;100.00;100757.13;4192882;28;20098;-74
2022/12/10 04:19:27;;;;;;;25.15;14.93;;;-2.40;99.90;;;-3.60;100.00;100765.63;4203374;28;20021;-74
2022/12/10 04:28:29;;;;;;;31.58;21.38;;;-2.30;99.90;;;-3.51;100.00;100762.66;4202569;28;20035;-74
2022/12/10 04:30:30;;;;;;;30.92;18.70;;;-2.30;99.90;;;-3.46;100.00;100771.00;4202540;28;20017;-74
2022/12/10 04:32:31;;;;;;;26.80;17.58;;;-2.30;99.90;;;-3.43;100.00;100773.44;4203583;28;20033;-74
2022/12/10 04:34:32;;;;;;;27.45;16.85;;;-2.30;99.90;;;-3.42;100.00;100772.56;4202941;28;20387;-74
2022/12/10 04:36:33;;;;;;;32.83;18.15;;;-2.20;99.90;;;-3.41;100.00;100774.25;4202141;28;20028;-74
2022/12/10 04:38:34;;;;;;;26.25;16.15;;;-2.20;99.90;;;-3.34;100.00;100771.41;4202195;28;20064;-74
2022/12/10 04:40:34;;;;;;;29.02;16.13;;;-2.20;99.90;;;-3.33;100.00;100766.16;4202159;28;20021;-74
2022/12/10 04:42:35;;;;;;;28.33;17.15;;;-2.20;99.90;;;-3.29;100.00;100774.59;4203205;28;20043;-74
2022/12/10 04:44:37;;;;;;;33.10;16.85;;;-2.10;99.90;;;-3.36;100.00;100772.28;4201852;28;20099;-74
2022/12/10 04:46:38;;;;;;;27.33;17.38;;;-2.10;99.90;;;-3.41;100.00;100763.94;4201986;28;20028;-74
2022/12/10 04:48:38;;;;;;;30.02;18.25;;;-2.10;99.90;;;-3.55;100.00;100763.69;4201624;28;20584;-74
2022/12/10 04:50:39;;;;;;;26.45;17.58;;;-2.20;99.90;;;-3.57;100.00;100780.13;4203135;28;20024;-74
2022/12/10 04:52:40;;;;;;;25.25;15.98;;;-2.30;99.90;;;-3.63;100.00;100781.22;4201689;28;20028;-74
2022/12/10 04:54:42;;;;;;;27.10;15.45;;;-2.30;99.90;;;-3.65;100.00;100777.88;4202979;28;20542;-74
2022/12/10 04:56:43;;;;;;;22.98;15.50;;;-2.40;99.90;;;-3.61;100.00;100773.41;4201710;28;20032;-74
2022/12/10 04:58:44;;;;;;;26.58;16.17;;;-2.40;99.90;;;-3.59;100.00;100777.63;4202861;28;20056;-74
2022/12/10 05:00:45;;;;;;;25.42;15.75;;;-2.40;99.90;;;-3.59;100.00;100772.47;4201695;28;20032;-74
2022/12/10 05:02:49;;;;;;;26.88;15.70;;;-2.40;99.90;;;-3.53;100.00;100774.78;4201584;28;20055;-74
2022/12/10 05:04:50;;;;;;;24.23;14.40;;;-2.30;99.90;;;-3.47;100.00;100783.97;4201350;28;20029;-74
2022/12/10 05:06:51;;;;;;;30.27;16.20;;;-2.30;99.90;;;-3.49;100.00;100778.88;4202478;28;20024;-74
2022/12/10 05:08:52;;;;;;;25.17;15.52;;;-2.30;99.90;;;-3.47;100.00;100777.09;4202091;28;20047;-74
2022/12/10 05:10:53;;;;;;;24.80;14.45;;;-2.20;99.90;;;-3.47;100.00;100783.97;4202768;28;20086;-74
2022/12/10 05:12:54;;;;;;;24.33;14.30;;;-2.20;99.90;;;-3.48;100.00;100785.72;4201516;28;20020;-74
2022/12/10 05:14:55;;;;;;;24.30;14.90;;;-2.30;99.90;;;-3.49;100.00;100781.47;4201314;28;20048;-74
2022/12/10 05:16:56;;;;;;;22.88;15.27;;;-2.20;99.90;;;-3.48;100.00;100780.56;4184570;28;20163;-74
2022/12/10 05:18:57;;;;;;;24.95;15.73;;;-2.30;99.90;;;-3.43;100.00;100785.50;4184529;28;20040;-74
2022/12/10 05:21:04;;;;;;;22.58;14.68;;;-2.30;99.90;;;-3.41;100.00;100787.13;4202484;28;20492;-74
2022/12/10 05:25:25;;;;;;;21.40;13.93;;;-2.20;99.90;;;-3.42;100.00;100795.78;4202624;28;20387;-74
2022/12/10 05:27:32;;;;;;;24.88;14.40;;;-2.20;99.90;;;-3.48;100.00;100788.28;4183911;28;20025;-74
2022/12/10 05:29:34;;;;;;;24.58;14.23;;;-2.20;99.90;;;-3.49;100.00;100802.09;4172355;28;20053;-74
2022/12/10 05:31:35;;;;;;;23.88;14.07;;;-2.30;99.90;;;-3.52;100.00;100799.63;4217918;28;20111;-74
2022/12/10 05:33:36;;;;;;;28.00;16.67;;;-2.30;99.90;;;-3.46;100.00;100799.38;4217748;28;20548;-74
2022/12/10 05:35:37;;;;;;;27.20;15.45;;;-2.30;99.90;;;-3.39;100.00;100800.78;4217876;28;20032;-74
2022/12/10 05:37:38;;;;;;;29.02;16.55;;;-2.20;99.90;;;-3.27;100.00;100799.41;4197633;28;20028;-74
2022/12/10 05:39:38;;;;;;;25.13;16.02;;;-2.20;99.90;;;-3.22;100.00;100796.63;4202046;28;20028;-74
2022/12/10 05:41:40;;;;;;;25.40;15.43;;;-2.10;99.90;;;-3.23;100.00;100787.22;4202231;28;20025;-74
2022/12/10 05:43:43;;;;;;;20.98;14.13;;;-2.10;99.90;;;-3.28;100.00;100786.56;4201179;28;20044;-74
2022/12/10 05:45:45;;;;;;;22.73;14.23;;;-2.10;99.90;;;-3.40;100.00;100796.53;4200887;28;20060;-74
2022/12/10 05:47:46;;;;;;;24.17;14.23;;;-2.10;99.90;;;-3.55;100.00;100786.03;4201946;28;20036;-75
2022/12/10 05:49:47;;;;;;;26.77;14.98;;;-2.20;99.90;;;-3.67;100.00;100792.56;4201937;28;20029;-74
2022/12/10 05:51:48;;;;;;;21.80;13.75;;;-2.30;99.90;;;-3.78;100.00;100784.44;4202076;28;20061;-74
2022/12/10 05:53:50;;;;;;;25.10;14.65;;;-2.40;99.90;;;-3.84;100.00;100784.69;4200795;28;20044;-74
2022/12/10 05:56:00;;;;;;;25.08;13.80;;;-2.50;99.90;;;-3.83;100.00;100786.38;4200716;28;20024;-74
2022/12/10 05:58:02;;;;;;;25.80;14.45;;;-2.60;99.90;;;-3.84;100.00;100787.28;4200859;28;20036;-74
2022/12/10 06:00:06;;;;;;;26.17;14.57;;;-2.60;99.90;;;-3.81;100.00;100787.16;4202178;28;20452;-75
2022/12/10 06:02:07;;;;;;;23.85;14.98;;;-2.60;99.90;;;-3.76;100.00;100789.56;4200629;28;20400;-75
2022/12/10 06:04:08;;;;;;;23.20;14.40;;;-2.50;99.90;;;-3.77;100.00;100790.44;4201624;28;20086;-75
2022/12/10 06:06:10;;;;;;;20.60;13.02;;;-2.50;99.90;;;-3.73;100.00;100792.81;4200998;28;20029;-75
2022/12/10 06:08:11;;;;;;;20.95;12.82;;;-2.50;99.90;;;-3.75;100.00;100794.63;4202114;28;20079;-75
2022/12/10 06:10:12;;;;;;;23.33;14.25;;;-2.50;99.90;;;-3.81;100.00;100792.31;4201929;28;20024;-75
2022/12/10 06:12:13;;;;;;;27.00;14.70;;;-2.50;99.90;;;-3.83;100.00;100806.16;4200551;28;20039;-75
2022/12/10 06:14:14;;;;;;;21.45;13.90;;;-2.60;99.90;;;-3.93;100.00;100808.28;4200345;28;20021;-75
2022/12/10 06:16:16;;;;;;;23.40;13.38;;;-2.60;99.90;;;-3.99;100.00;100803.38;4200446;28;20057;-74
2022/12/10 06:18:16;;;;;;;20.10;14.40;;;-2.70;99.90;;;-4.01;100.00;100805.19;4200429;28;20086;-75
2022/12/10 06:20:17;;;;;;;20.77;12.75;;;-2.70;99.90;;;-4.05;100.00;100795.91;4200595;28;20028;-74
2022/12/10 06:22:18;;;;;;;22.27;13.77;;;-2.70;99.90;;;-4.02;100.00;100809.50;4201957;28;20024;-74
2022/12/10 06:24:19;;;;;;;23.30;13.93;;;-2.70;99.90;;;-4.04;100.00;100813.88;4201777;28;20064;-74
2022/12/10 06:26:24;;;;;;;23.65;13.43;;;-2.70;99.90;;;-4.08;100.00;100814.06;4201677;28;20058;-75
2022/12/10 06:28:25;;;;;;;22.65;13.80;;;-2.80;99.90;;;-4.08;100.00;100814.91;4201782;28;20025;-75
2022/12/10 06:30:26;;;;;;;22.00;13.20;;;-2.80;99.90;;;-4.04;100.00;100824.19;4200436;28;20478;-74
2022/12/10 06:32:27;;;;;;;21.98;13.07;;;-2.80;99.90;;;-4.02;100.00;100824.94;4201855;28;20021;-74
2022/12/10 06:34:28;;;;;;;23.58;13.85;;;-2.80;99.90;;;-4.02;100.00;100829.25;4201458;28;20395;-75
2022/12/10 06:36:29;;;;;;;20.75;13.35;;;-2.70;99.90;;;-4.04;100.00;100816.44;4201456;28;20025;-75
2022/12/10 06:38:30;;;;;;;23.50;14.15;;;-2.80;99.90;;;-3.99;100.00;100821.41;4200334;28;20558;-75
2022/12/10 06:40:31;;;;;;;22.13;13.48;;;-2.70;99.90;;;-3.98;100.00;100823.09;4200504;28;20021;-75
2022/12/10 06:42:32;;;;;;;23.88;16.08;;;-2.70;99.90;;;-3.95;100.00;100835.84;4200359;28;20040;-75
2022/12/10 06:44:33;;;;;;;36.15;20.15;;;-2.70;99.90;;;-3.94;100.00;100840.06;4200219;28;20028;-75
2022/12/10 06:46:34;;;;;;;34.60;21.15;;;-2.70;99.90;;;-3.98;100.00;100836.81;4200372;28;20052;-74
2022/12/10 06:48:35;;;;;;;32.05;19.58;;;-2.70;99.90;;;-3.97;100.00;100833.31;4201371;28;20021;-75
2022/12/10 06:50:37;;;;;;;33.63;19.70;;;-2.70;99.90;;;-3.97;100.00;100837.63;4200312;28;20078;-75
2022/12/10 06:52:38;;;;;;;28.88;17.92;;;-2.70;99.90;;;-3.97;100.00;100837.63;4200302;28;20078;-75
2022/12/10 06:54:39;;;;;;;34.08;21.48;;;-2.70;99.90;;;-4.02;100.00;100835.25;4201865;28;20029;-75
2022/12/10 06:56:40;;;;;;;34.42;22.60;;;-2.70;99.90;;;-3.97;100.00;100841.03;4200299;28;20048;-75
2022/12/10 06:58:42;;;;;;;32.45;20.35;;;-2.70;99.90;;;-4.02;100.00;100840.41;4201846;28;20131;-74
2022/12/10 07:00:42;;;;;;;27.20;18.63;;;-2.70;99.90;;;-4.04;100.00;100839.63;4201310;28;20029;-75
2022/12/10 07:02:43;;;;;;;30.70;18.55;;;-2.70;99.90;;;-4.08;100.00;100840.66;4201615;28;20031;-74
2022/12/10 07:04:44;;;;;;;32.58;18.45;;;-2.80;99.90;;;-4.16;100.00;100834.13;4201011;28;20035;-75
2022/12/10 07:06:45;;;;;;;24.40;16.27;;;-2.80;99.90;;;-4.19;100.00;100837.69;4200209;28;20531;-75
2022/12/10 07:08:47;;;;;;;26.55;17.55;;;-2.80;99.90;;;-4.24;100.00;100843.91;4199992;28;20024;-74
2022/12/10 07:10:48;;;;;;;29.45;18.75;;;-2.90;99.90;;;-4.29;100.00;100840.66;4201803;28;20052;-74
2022/12/10 07:12:49;;;;;;;30.13;18.90;;;-3.00;99.90;;;-4.29;100.00;100830.34;4200460;28;20032;-75
2022/12/10 07:14:50;;;;;;;31.65;20.25;;;-3.00;99.90;;;-4.27;100.00;100834.53;4190994;28;20048;-75
2022/12/10 07:16:51;;;;;;;33.80;20.20;;;-3.00;99.90;;;-4.27;100.00;100844.03;4201365;28;20029;-75
2022/12/10 07:18:54;;;;;;;37.58;21.08;;;-3.00;99.90;;;-4.24;100.00;100843.91;4199776;28;20094;-75
2022/12/10 07:20:55;;;;;;;36.05;19.90;;;-3.00;99.90;;;-4.22;100.00;100852.41;4216789;28;20054;-75
2022/12/10 07:22:56;;;;;;;28.98;18.45;;;-2.90;99.90;;;-4.22;100.00;100852.41;4201339;28;20060;-75
2022/12/10 07:24:57;;;;;;;33.75;20.45;;;-2.90;99.90;;;-4.23;100.00;100855.88;4201557;28;20020;-74
2022/12/10 07:26:57;;;;;;;28.13;18.05;;;-2.90;99.90;;;-4.23;100.00;100855.88;4203321;28;20089;-74
2022/12/10 07:28:59;;;;;;;27.70;17.40;;;-2.90;99.90;;;-4.24;100.00;100854.22;4204276;28;20107;-74
2022/12/10 07:31:06;;;;;;;29.45;18.70;;;-2.90;99.90;;;-4.20;100.00;100860.91;4202954;28;20054;-74
2022/12/10 07:33:07;;;;;;;27.20;17.92;;;-2.90;99.90;;;-4.20;100.00;100855.75;4202577;28;20035;-74
2022/12/10 07:35:08;;;;;;;27.60;17.40;;;-2.90;99.90;;;-4.22;100.00;100860.13;4202642;28;20025;-74
2022/12/10 07:37:09;;;;;;;29.88;18.95;;;-2.90;99.90;;;-4.23;100.00;100867.00;4202813;28;20024;-74
2022/12/10 07:39:16;;;;;;;27.88;17.17;;;-2.90;99.90;;;-4.25;100.00;100857.66;4202914;28;20028;-73
2022/12/10 07:41:18;;;;;;;30.75;17.00;;;-2.90;99.90;;;-4.26;100.00;100856.84;4203885;28;20028;-73
2022/12/10 07:43:19;;;;;;;35.15;19.98;;;-2.90;99.90;;;-4.24;100.00;100859.38;4203065;28;20483;-73
2022/12/10 07:45:20;;;;;;;32.88;20.17;;;-2.90;99.90;;;-4.20;100.00;100866.03;4202807;28;20036;-73
2022/12/10 07:47:21;;;;;;;30.17;20.05;;;-2.90;99.90;;;-4.25;100.00;100848.22;4203889;28;20051;-73
2022/12/10 07:49:22;;;;;;;37.00;20.27;;;-2.90;99.90;;;-4.25;100.00;100865.41;4202508;28;20020;-73
2022/12/10 07:51:23;;;;;;;37.95;22.73;;;-2.90;99.90;;;-4.21;100.00;100864.38;4202813;28;20025;-73
2022/12/10 07:53:24;;;;;;;28.45;18.63;;;-2.90;99.90;;;-4.21;100.00;100864.38;4203993;28;20028;-73
2022/12/10 07:55:25;;;;;;;33.35;19.92;;;-2.90;99.90;;;-4.20;100.00;100868.63;4202770;28;20024;-73
2022/12/10 07:57:27;;;;;;;30.25;18.92;;;-2.90;99.90;;;-4.17;100.00;100873.66;4203725;28;20128;-73
2022/12/10 07:59:29;;;;;;;40.42;24.77;;;-2.90;99.90;;;-4.15;100.00;100869.31;4202487;28;20033;-73
2022/12/10 08:01:30;;;;;;;36.53;22.80;;;-2.80;99.90;;;-4.09;100.00;100866.47;4202492;28;20085;-73
2022/12/10 08:03:31;;;;;;;46.50;26.10;;;-2.80;99.90;;;-3.99;100.00;100876.34;4185645;28;20065;-73
2022/12/10 08:05:32;;;;;;;44.72;26.00;;;-2.80;99.90;;;-3.92;100.00;100866.66;4202279;28;20028;-73
2022/12/10 08:07:33;;;;;;;37.70;23.63;;;-2.70;99.90;;;-3.88;100.00;100872.50;4202619;28;20427;-73
2022/12/10 08:09:34;;;;;;;38.33;23.73;;;-2.60;99.90;;;-3.88;100.00;100875.91;4202484;28;20075;-73
2022/12/10 08:11:35;;;;;;;33.45;21.05;;;-2.60;99.90;;;-3.89;100.00;100879.41;4190868;28;20166;-73
2022/12/10 08:13:37;;;;;;;40.25;21.88;;;-2.60;99.90;;;-3.88;100.00;100875.91;4235846;28;20024;-73
2022/12/10 08:15:38;;;;;;;35.80;22.42;;;-2.60;99.90;;;-3.84;100.00;100880.03;4191059;28;20079;-73
2022/12/10 08:17:39;;;;;;;40.55;23.30;;;-2.60;99.90;;;-3.82;100.00;100878.22;4203389;28;20020;-73
2022/12/10 08:19:39;;;;;;;39.80;23.70;;;-2.60;99.90;;;-3.77;100.00;100880.66;4201956;28;20527;-73
2022/12/10 08:21:42;;;;;;;42.67;24.27;;;-2.50;99.90;;;-3.72;100.00;100882.13;4203303;28;20102;-73
2022/12/10 08:23:43;;;;;;;46.35;28.23;;;-2.50;99.90;;;-3.70;100.00;100877.75;4202484;28;20056;-73
2022/12/10 08:25:44;;;;;;;46.00;27.02;;;-2.40;99.90;;;-3.65;100.00;100887.88;4201972;28;20054;-73
2022/12/10 08:27:45;;;;;;;46.97;27.75;;;-2.40;99.90;;;-3.63;100.00;100879.16;4202008;28;20430;-73
2022/12/10 08:29:46;;;;;;;45.38;27.92;;;-2.40;99.90;;;-3.63;100.00;100879.16;4203505;28;20027;-73